Jemez Springs, Valles Caldera, New Mexico Weather observations

Data are for 10 minute period ending at time listed.
 Day   Time   Solar   Ave.   Ave.  Ave.  Vector  Max.   Baro.   Total    
  of    of     Rad.   Air    Rel.  Wind   Wind   Wind  Press.  Precip.   
Year   Day            Temp.  Hum.  Speed  Dir.   Gust                    
2016   (MST)  Kw/m2    F      %     mph   deg.    mph    mb.     in.     
-------------------------------------------------------------------------
  37   10:30   0.60   34.3    28    4.5   167     7.2   818.2    0.00 
  37   10:40   0.62   35.1    27    4.1   166     6.6   818.0    0.00 
  37   10:50   0.64   35.5    27    4.1   173     6.6   817.9    0.00 
  37   11:00   0.65   36.3    28    5.1   178     8.4   817.8    0.00 
  37   11:10   0.66   36.6    28    5.7   184     9.0   817.5    0.00 
  37   11:20   0.67   36.9    28    6.2   168     9.6   817.3    0.00 
  37   11:30   0.68   38.1    28    6.3   178    11.3   817.1    0.00 
  37   11:40   0.69   37.6    30    9.1   174    13.1   817.1    0.00 
  37   11:50   0.69   38.7    30    7.2   171    13.1   816.9    0.00 
  37   12:00   0.70   39.8    29    6.7   174    12.5   816.7    0.00 
  37   12:10   0.67   40.6    29    7.7   169    11.9   816.4    0.00 
  37   12:20   0.70   41.7    28    7.6   179    13.1   816.2    0.00 
  37   12:30   0.69   42.5    28    7.5   178    14.9   815.8    0.00 
  37   12:40   0.69   42.8    28    8.0   177    13.1   815.5    0.00 
  37   12:50   0.68   43.9    28    6.6   184    12.5   815.2    0.00 
  37   13:00   0.68   43.8    28    8.1   177    13.7   815.1    0.00 
  37   13:10   0.67   44.6    28    7.4   183    12.5   815.1    0.00 
  37   13:20   0.65   44.5    27    8.1   178    13.1   815.0    0.00 
  37   13:30   0.64   45.0    27    7.9   171    13.7   814.7    0.00 
  37   13:40   0.62   44.8    27   11.4   185    17.9   814.5    0.00 
  37   13:50   0.61   45.3    27   11.3   183    17.3   814.3    0.00 
  37   14:00   0.59   45.4    27   12.1   179    18.5   814.1    0.00 
  37   14:10   0.57   46.2    26   12.1   177    17.9   814.0    0.00 
  37   14:20   0.55   46.2    26   14.1   180    20.3   813.8    0.00 
  37   14:30   0.53   46.8    26   12.7   178    19.7   813.7    0.00 
  37   14:40   0.50   47.1    25   13.7   179    22.7   813.6    0.00 
  37   14:50   0.47   47.7    25   11.0   186    20.9   813.7    0.00 
  37   15:00   0.45   48.1    24    9.2   201    14.3   813.7    0.00 
  37   15:10   0.42   48.6    24    8.4   199    12.5   813.7    0.00 
  37   15:20   0.39   49.4    23    8.1   197    12.5   813.7    0.01 
  37   15:30   0.36   50.0    22    8.4   214    17.3   813.7    0.00 
  37   15:40   0.33   50.6    20    5.0     8    11.3   813.7    0.00 
  37   15:50   0.30   50.2    20    5.1    49    13.7   813.7    0.00 
  37   16:00   0.27   49.8    20    3.8    40     7.8   813.9    0.00 
  37   16:10   0.23   48.7    21    6.3     9    11.3   814.0    0.00 
  37   16:20   0.06   47.2    23    4.8   319    10.2   814.1    0.00 
  37   16:30   0.02   45.8    23    4.9   311    11.3   814.1    0.00 
  37   16:40   0.02   44.9    25    4.9   308    11.9   814.1    0.00 
  37   16:50   0.02   44.9    24    7.9   297    16.7   814.1    0.00 
  37   17:00   0.02   44.2    25    6.8   309    14.9   814.2    0.00 
  37   17:10   0.01   44.1    25    4.1    19    11.3   814.2    0.00 
  37   17:20   0.01   43.2    27    3.1   331     7.2   814.3    0.00 
  37   17:30   0.01   42.8    27    5.7   336    11.9   814.4    0.00 
  37   17:40   0.01   42.0    28    6.2   358    10.8   814.4    0.00 
  37   17:50   0.00   41.9    28    5.4     1    10.8   814.5    0.00 
  37   18:00   0.00   41.5    29    3.5    10     9.0   814.5    0.00 
  37   18:10   0.00   40.6    30    5.0   352    11.9   814.5    0.00 
  37   18:20   0.00   40.3    31    3.7   350     6.6   814.5    0.00 
  37   18:30   0.00   39.5    32    4.4   342     8.4   814.6    0.00 
  37   18:40   0.00   39.4    32    4.3   340     8.4   814.5    0.00 
  37   18:50   0.00   37.6    37    2.6   358     4.8   814.5    0.00 
  37   19:00   0.00   35.7    42    2.8    20     4.2   814.6    0.00 
  37   19:10   0.00   34.6    45    3.6    25     6.0   814.7    0.00 
  37   19:20   0.00   34.2    46    4.1     9     9.0   814.7    0.00 
  37   19:30   0.00   34.3    46    3.8    20     6.6   814.8    0.00 
  37   19:40   0.00   33.3    48    3.5    29     6.0   814.8    0.00 
  37   19:50   0.00   35.5    41    6.0   331    10.8   814.8    0.01 
  37   20:00   0.00   37.2    37    4.6   353    11.9   815.0    0.00 
  37   20:10   0.00   36.7    38    3.1   354     9.6   815.0    0.00 
  37   20:20   0.00   35.1    41    1.7    13     4.2   814.9    0.00 
  37   20:30   0.00   33.9    45    1.8    35     6.0   815.0    0.00 
  37   20:40   0.00   32.7    50    2.8    57     6.6   815.2    0.00 
  37   20:50   0.00   31.3    54    0.8   155     2.4   815.1    0.00 
  37   21:00   0.00   29.7    58    1.2    84     3.6   815.0    0.00 
  37   21:10   0.00   30.4    55    4.8    28    11.9   814.8    0.00 
  37   21:20   0.00   31.4    52    6.6    21    10.2   814.7    0.00 
  37   21:30   0.00   30.9    54    7.8    28    10.8   814.7    0.00 
  37   21:40   0.00   30.6    55    6.6    29    10.8   814.7    0.00 
  37   21:50   0.00   31.3    52    7.9    18    13.1   814.8    0.00 
  37   22:00   0.00   31.3    52    7.6    24    10.8   814.6    0.00 
  37   22:10   0.00   31.3    52    7.1    26    11.9   814.4    0.00 
  37   22:20   0.00   31.3    51    5.1    21     8.4   814.3    0.00 
  37   22:30   0.00   31.3    50    3.0   347     7.8   814.4    0.00 
  37   22:40   0.00   31.2    52    2.3    27     6.6   814.5    0.00 
  37   22:50   0.00   29.8    56    1.2   193     3.0   814.6    0.00 
  37   23:00   0.00   28.2    62    1.0   183     3.0   814.8    0.00 
  37   23:10   0.00   27.0    65    0.9   176     3.6   814.8    0.00 
  37   23:20   0.00   26.5    67    0.8    15     2.4   814.8    0.00 
  37   23:30   0.00   25.6    71    1.3    16     2.4   814.6    0.00 
  37   23:40   0.00   27.2    64    6.0    18    10.8   814.6    0.00 
  37   23:50   0.00   30.9    52    5.5    24     9.0   814.5    0.00 
  38    0:00   0.00   30.6    52    6.3    20     9.6   814.5    0.00 
  38    0:10   0.00   30.9    50    5.9     2    10.2   814.6    0.00 
  38    0:20   0.00   30.8    50    5.4    15    13.1   814.6    0.00 
  38    0:30   0.00   30.6    51    4.0    11     8.4   814.7    0.00 
  38    0:40   0.00   29.9    53    4.3    34     8.4   814.6    0.00 
  38    0:50   0.00   29.5    54    5.0    32     9.6   814.6    0.00 
  38    1:00   0.00   29.7    53    4.3    19     7.2   814.5    0.00 
  38    1:10   0.00   29.7    53    3.9    32     7.8   814.5    0.00 
  38    1:20   0.00   29.6    53    5.6    21    10.8   814.5    0.00 
  38    1:30   0.00   29.7    52    6.5    24    11.3   814.3    0.00 
  38    1:40   0.00   30.0    51    5.8    15     9.0   814.4    0.00 
  38    1:50   0.00   30.1    51    4.8   358    12.5   814.3    0.00 
  38    2:00   0.00   30.1    50    6.0   357    10.8   814.3    0.00 
  38    2:10   0.00   29.8    51    5.4    14     9.0   814.3    0.00 
  38    2:20   0.00   28.8    54    5.3    26     8.4   814.3    0.00 
  38    2:30   0.00   27.9    56    5.6    30     9.0   814.3    0.00 
  38    2:40   0.00   28.2    54    7.6    18    12.5   814.3    0.00 
  38    2:50   0.00   28.5    53    7.7    19    11.9   814.1    0.00 
  38    3:00   0.00   28.0    55    8.7    22    14.3   814.2    0.00 
  38    3:10   0.00   27.8    55    7.5    17    12.5   813.9    0.00 
  38    3:20   0.00   27.6    55    7.7    12    12.5   814.1    0.00 
  38    3:30   0.00   27.8    54    6.6     7    12.5   813.9    0.00 
  38    3:40   0.00   27.8    54    6.8     6    13.1   813.8    0.00 
  38    3:50   0.00   27.4    55    6.8     6    10.8   813.7    0.00 
  38    4:00   0.00   27.4    55    6.6    14    10.8   813.6    0.00 
  38    4:10   0.00   27.1    55    5.8   356    10.8   813.5    0.00 
  38    4:20   0.00   26.9    55    6.4     7    10.2   813.5    0.00 
  38    4:30   0.00   26.4    57    6.5    27     9.6   813.5    0.00 
  38    4:40   0.00   26.1    57    4.6    35     9.0   813.5    0.00 
  38    4:50   0.00   25.8    58    5.1    32     8.4   813.4    0.00 
  38    5:00   0.00   25.8    58    5.8    23     8.4   813.5    0.00 
  38    5:10   0.00   25.3    59    5.1    28     9.0   813.5    0.00 
  38    5:20   0.00   25.4    58    5.4    29     9.0   813.5    0.00 
  38    5:30   0.00   25.2    58    5.8    26     9.6   813.5    0.00 
  38    5:40   0.00   25.0    58    5.2    37     9.0   813.4    0.00 
  38    5:50   0.00   24.8    59    4.8    35     7.8   813.3    0.00 
  38    6:00   0.00   24.7    59    4.8    35    11.3   813.5    0.00 
  38    6:10   0.00   24.6    60    4.5    29     7.8   813.7    0.00 
  38    6:20   0.00   24.6    60    2.8    19     7.8   813.7    0.00 
  38    6:30   0.00   24.5    60    6.6    10    10.8   813.9    0.00 
  38    6:40   0.00   25.1    58    6.6    14    10.8   814.0    0.00 
  38    6:50   0.00   24.7    59    5.6    15     9.6   814.1    0.00 
  38    7:00   0.00   24.5    60    5.8    16    11.3   814.2    0.00 
  38    7:10   0.01   24.6    60    5.6    16     9.0   814.3    0.00 
  38    7:20   0.01   24.6    60    7.0    12    10.8   814.3    0.00 
  38    7:30   0.01   24.6    60    4.3    11     8.7   814.5    0.00 
  38    7:40   0.01   24.2    62    1.5   162     4.2   814.8    0.00 
  38    7:50   0.02   24.4    62    2.0   180     4.8   814.9    0.00 
  38    8:00   0.02   23.4    67    1.0   196     3.0   815.0    0.00 
  38    8:10   0.02   22.9    69    0.2   132     2.4   815.0    0.00 
  38    8:20   0.04   22.5    72    0.0     0     0.0   814.9    0.00 
  38    8:30   0.16   23.3    73    1.1   187     3.6   814.9    0.00 
  38    8:40   0.23   27.0    63    0.7   166     2.4   814.8    0.00 
  38    8:50   0.28   29.4    58    0.4   140     2.4   814.8    0.00 
  38    9:00   0.26   31.0    52    0.4   129     2.4   814.9    0.00 
  38    9:10   0.26   31.6    50    3.8   174     7.8   814.9    0.00 
  38    9:20   0.31   31.5    50    4.6   167     7.8   815.1    0.00 
  38    9:30   0.31   31.8    49    4.5   152     6.6   815.3    0.00 
  38    9:40   0.43   32.6    48    4.6   161     6.6   815.4    0.00 
  38    9:50   0.53   34.1    45    5.4   157     7.8   815.4    0.00 
  38   10:00   0.44   34.9    43    4.6   173     7.2   815.6    0.00 
  38   10:10   0.53   35.3    43    5.0   175     7.8   815.7    0.00 
  38   10:20   0.57   37.1    41    5.9   171     9.0   815.7    0.00 

Return to Jemez Springs, Valles Caldera graphs page.


Western Regional Climate Center,wrcc@dri.edu